Time;durP1;ratioP1;P1;durP2;ratioP2;P2;SDS_P1;SDS_P2;PMS_P1;PMS_P2;Temp;Humidity;BMP_temperature;BMP_pressure;BME280_temperature;BME280_humidity;BME280_pressure;Samples;Min_cycle;Max_cycle;Signal;HPM_P1;HPM_P2
2023/08/26 00:02:08;;;;;;;7.00;4.50;;;;;;;21.33;99.08;99647.08;128182;1283;99472;-79
2023/08/26 00:05:14;;;;;;;6.60;4.10;;;;;;;21.40;97.39;99631.12;128198;1283;99574;-78
2023/08/26 00:08:19;;;;;;;8.20;4.60;;;;;;;21.50;96.63;99616.48;128293;1280;100565;-78
2023/08/26 00:11:25;;;;;;;6.00;4.70;;;;;;;21.60;96.30;99605.38;128231;1285;99433;-76
2023/08/26 00:14:31;;;;;;;7.70;4.50;;;;;;;21.67;95.83;99586.23;128258;1283;99324;-78
2023/08/26 00:17:36;;;;;;;7.50;4.30;;;;;;;21.72;95.63;99579.38;128207;1282;99387;-78
2023/08/26 00:20:42;;;;;;;6.50;4.50;;;;;;;21.75;95.57;99582.91;128163;1292;99466;-78
2023/08/26 00:23:48;;;;;;;6.20;4.20;;;;;;;21.76;95.60;99580.86;128198;1284;99438;-78
2023/08/26 00:26:53;;;;;;;7.40;4.50;;;;;;;21.74;95.61;99580.67;128191;1279;100561;-78
2023/08/26 00:30:00;;;;;;;6.90;4.60;;;;;;;21.77;95.63;99574.04;128182;1284;100486;-79
2023/08/26 00:33:07;;;;;;;6.10;4.70;;;;;;;21.79;95.56;99561.85;128113;1284;99459;-78
2023/08/26 00:36:13;;;;;;;7.60;4.20;;;;;;;21.83;95.42;99546.18;128192;1283;99324;-78
2023/08/26 00:39:18;;;;;;;5.30;4.60;;;;;;;21.86;95.29;99540.46;128086;1279;99796;-78
2023/08/26 00:42:25;;;;;;;7.00;6.00;;;;;;;21.85;95.84;99541.92;128188;1282;100549;-78
2023/08/26 00:45:32;;;;;;;8.20;5.00;;;;;;;21.78;95.52;99529.80;128118;1279;99465;-78
2023/08/26 00:48:38;;;;;;;6.20;4.90;;;;;;;21.78;95.47;99519.80;128203;1283;99486;-79
2023/08/26 00:51:43;;;;;;;4.50;4.10;;;;;;;21.78;95.42;99513.44;127776;1285;223850;-78
2023/08/26 00:54:49;;;;;;;5.10;4.20;;;;;;;21.77;95.24;99515.98;128144;1284;99375;-78
2023/08/26 00:57:56;;;;;;;4.90;4.20;;;;;;;21.77;95.40;99505.38;128186;1285;100566;-78
2023/08/26 01:01:02;;;;;;;4.90;4.40;;;;;;;21.77;95.39;99498.83;128075;1280;99549;-78
2023/08/26 01:04:08;;;;;;;5.40;4.20;;;;;;;21.78;95.20;99497.63;128156;1285;100524;-78
2023/08/26 01:07:14;;;;;;;5.10;4.50;;;;;;;21.76;95.09;99498.59;128253;1283;100543;-78
2023/08/26 01:10:25;;;;;;;6.00;4.50;;;;;;;21.74;95.05;99505.98;128194;1285;100547;-78
2023/08/26 01:13:36;;;;;;;4.10;3.60;;;;;;;21.73;95.08;99507.39;128140;1282;99453;-79
2023/08/26 01:16:43;;;;;;;4.90;3.80;;;;;;;21.69;95.28;99507.91;128089;1284;99352;-78
2023/08/26 01:19:49;;;;;;;5.00;4.00;;;;;;;21.67;95.21;99507.92;128081;1284;100546;-78
2023/08/26 01:22:59;;;;;;;4.40;4.00;;;;;;;21.66;95.27;99506.39;128080;1284;99852;-78
2023/08/26 01:26:05;;;;;;;4.20;3.70;;;;;;;21.64;95.30;99504.02;127907;1285;99689;-78
2023/08/26 01:29:11;;;;;;;4.70;4.00;;;;;;;21.62;95.40;99501.76;127904;1283;99434;-78
2023/08/26 01:32:26;;;;;;;7.80;4.30;;;;;;;21.53;96.00;99513.76;128075;1283;99685;-78
2023/08/26 01:35:37;;;;;;;4.70;4.30;;;;;;;21.47;95.73;99510.95;128109;1283;99359;-78
2023/08/26 01:38:44;;;;;;;6.90;4.10;;;;;;;21.47;95.65;99517.39;128172;1283;100561;-78
2023/08/26 01:41:51;;;;;;;4.60;4.00;;;;;;;21.45;95.45;99516.21;128225;1284;99387;-78
2023/08/26 01:44:57;;;;;;;4.80;4.00;;;;;;;21.40;95.24;99512.95;128211;1279;100557;-77
2023/08/26 01:48:02;;;;;;;4.90;4.40;;;;;;;21.36;95.28;99511.95;128111;1279;99486;-78
2023/08/26 01:51:08;;;;;;;4.60;4.10;;;;;;;21.32;95.35;99509.70;128162;1285;99394;-78
2023/08/26 01:54:14;;;;;;;4.30;3.90;;;;;;;21.30;95.35;99508.03;128154;1279;100520;-78
2023/08/26 01:57:20;;;;;;;4.20;3.80;;;;;;;21.27;95.25;99506.30;128199;1285;100476;-78
2023/08/26 02:00:26;;;;;;;5.00;4.60;;;;;;;21.24;95.29;99507.74;128135;1285;99368;-78
2023/08/26 02:03:31;;;;;;;8.00;4.50;;;;;;;21.20;95.24;99511.20;128130;1282;100536;-78
2023/08/26 02:06:38;;;;;;;3.20;3.40;;;;;;;21.15;95.03;99515.06;127876;1283;99468;-78
2023/08/26 02:09:44;;;;;;;4.10;3.70;;;;;;;21.11;95.12;99516.13;128115;1283;99911;-78
2023/08/26 02:12:49;;;;;;;5.20;4.50;;;;;;;21.08;95.22;99517.84;127909;1284;99405;-77
2023/08/26 02:15:57;;;;;;;6.00;4.40;;;;;;;21.06;95.47;99520.04;128178;1285;99390;-78
2023/08/26 02:19:02;;;;;;;6.20;4.60;;;;;;;21.06;95.77;99527.03;128204;1282;100546;-78
2023/08/26 02:22:09;;;;;;;5.40;4.90;;;;;;;21.04;95.79;99530.90;128099;1284;100606;-77
2023/08/26 02:25:18;;;;;;;5.10;4.60;;;;;;;21.04;95.75;99538.33;128215;1282;99942;-78
2023/08/26 02:28:24;;;;;;;7.30;5.70;;;;;;;21.05;96.03;99543.12;128070;1283;99487;-78
2023/08/26 02:31:29;;;;;;;6.50;5.90;;;;;;;21.04;96.17;99547.72;127934;1284;99456;-77
2023/08/26 02:34:37;;;;;;;6.50;5.90;;;;;;;21.02;96.25;99547.79;128203;1283;99471;-78
2023/08/26 02:37:42;;;;;;;7.90;7.10;;;;;;;21.03;96.48;99547.10;128249;1285;99486;-78
2023/08/26 02:40:55;;;;;;;10.40;7.80;;;;;;;21.04;96.46;99546.15;127938;1284;99537;-78
2023/08/26 02:44:00;;;;;;;10.40;7.90;;;;;;;21.04;96.46;99542.50;128130;1279;99502;-78
2023/08/26 02:47:06;;;;;;;10.90;8.70;;;;;;;21.03;96.48;99545.70;128069;1285;99538;-78
2023/08/26 02:50:13;;;;;;;9.60;8.60;;;;;;;21.01;96.70;99546.23;127936;1284;100428;-78
2023/08/26 02:53:18;;;;;;;9.90;8.60;;;;;;;21.00;96.54;99544.55;128189;1279;99453;-77
2023/08/26 02:56:24;;;;;;;10.20;9.20;;;;;;;21.00;96.47;99546.72;128106;1284;99454;-76
2023/08/26 02:59:30;;;;;;;10.80;8.80;;;;;;;20.98;96.61;99535.06;128190;1285;99377;-77
2023/08/26 03:02:36;;;;;;;10.30;8.60;;;;;;;20.96;96.53;99533.73;128121;1284;99422;-76
2023/08/26 03:05:42;;;;;;;9.90;8.80;;;;;;;20.93;96.46;99532.09;128208;1283;99369;-77
2023/08/26 03:08:48;;;;;;;10.80;9.50;;;;;;;20.91;96.48;99534.64;128166;1283;99371;-77
2023/08/26 03:11:53;;;;;;;10.10;9.00;;;;;;;20.88;96.47;99531.38;128174;1279;100511;-77
2023/08/26 03:15:00;;;;;;;9.60;8.70;;;;;;;20.86;96.54;99527.05;128199;1284;99381;-77
2023/08/26 03:18:07;;;;;;;9.10;8.20;;;;;;;20.83;96.68;99528.06;128170;1284;100540;-77
2023/08/26 03:21:12;;;;;;;9.60;8.60;;;;;;;20.81;96.62;99528.41;128108;1285;99941;-76
2023/08/26 03:24:18;;;;;;;9.80;8.90;;;;;;;20.78;96.35;99527.86;128146;1281;100564;-77
2023/08/26 03:27:26;;;;;;;11.00;9.50;;;;;;;20.75;96.24;99533.27;128290;1283;99803;-77
2023/08/26 03:30:32;;;;;;;10.90;8.70;;;;;;;20.69;96.10;99531.88;128178;1285;100455;-77
2023/08/26 03:33:38;;;;;;;10.40;8.70;;;;;;;20.62;96.11;99532.42;128203;1284;99430;-77
2023/08/26 03:36:43;;;;;;;10.50;8.60;;;;;;;20.54;96.35;99537.70;128255;1283;99394;-76
2023/08/26 03:39:50;;;;;;;10.20;9.20;;;;;;;20.53;96.60;99540.05;128241;1279;99477;-76
2023/08/26 03:42:55;;;;;;;10.80;9.50;;;;;;;20.53;96.64;99538.98;128103;1285;99368;-76
2023/08/26 03:46:03;;;;;;;10.80;9.50;;;;;;;20.54;96.79;99549.63;128180;1279;100034;-76
2023/08/26 03:49:09;;;;;;;5.90;5.40;;;;;;;20.55;96.75;99556.27;128234;1292;99452;-76
2023/08/26 03:52:15;;;;;;;9.70;8.80;;;;;;;20.54;96.46;99552.34;128104;1279;99445;-76
2023/08/26 03:55:21;;;;;;;10.60;9.30;;;;;;;20.52;96.45;99553.33;128103;1284;99341;-76
2023/08/26 03:58:27;;;;;;;10.30;9.30;;;;;;;20.53;96.47;99552.31;128190;1278;99355;-76
2023/08/26 04:01:33;;;;;;;10.00;8.80;;;;;;;20.52;96.56;99556.36;128118;1280;99394;-76
2023/08/26 04:04:38;;;;;;;10.90;8.30;;;;;;;20.52;96.57;99561.30;128203;1279;99486;-76
2023/08/26 04:07:44;;;;;;;8.40;7.60;;;;;;;20.53;96.68;99560.16;128189;1279;99436;-75
2023/08/26 04:10:54;;;;;;;9.80;8.10;;;;;;;20.54;96.65;99561.29;128222;1284;99458;-76
2023/08/26 04:13:59;;;;;;;9.00;8.10;;;;;;;20.59;96.58;99566.73;128157;1284;100549;-75
2023/08/26 04:17:05;;;;;;;9.40;8.20;;;;;;;20.62;96.75;99567.66;128175;1283;100569;-76
2023/08/26 04:20:13;;;;;;;10.30;8.90;;;;;;;20.65;96.71;99566.73;128101;1281;99410;-75
2023/08/26 04:23:19;;;;;;;11.00;9.40;;;;;;;20.69;96.71;99564.53;128067;1285;99360;-76
2023/08/26 04:26:24;;;;;;;10.70;9.50;;;;;;;20.72;96.62;99571.27;128173;1282;100530;-77
2023/08/26 04:29:30;;;;;;;11.80;9.10;;;;;;;20.76;96.78;99576.58;127939;1279;99442;-77
2023/08/26 04:32:37;;;;;;;9.00;8.10;;;;;;;20.84;97.07;99582.16;128078;1279;99447;-76
2023/08/26 04:35:44;;;;;;;8.80;7.90;;;;;;;20.96;97.08;99585.97;127924;1282;100555;-77
2023/08/26 04:38:55;;;;;;;8.20;7.40;;;;;;;21.11;97.12;99588.92;127871;1279;100542;-77
2023/08/26 04:42:04;;;;;;;10.80;7.50;;;;;;;21.27;97.22;99584.27;128050;1285;99812;-75
2023/08/26 04:45:14;;;;;;;9.90;7.80;;;;;;;21.42;97.07;99586.83;128131;1284;100414;-76
2023/08/26 04:48:20;;;;;;;10.20;7.20;;;;;;;21.58;96.94;99588.83;128791;1282;100553;-77
2023/08/26 04:51:25;;;;;;;8.30;6.40;;;;;;;21.72;96.79;99590.09;128251;1280;99444;-77
2023/08/26 04:54:32;;;;;;;8.70;6.90;;;;;;;21.82;96.68;99586.78;128304;1284;99434;-77
2023/08/26 04:57:38;;;;;;;8.20;7.00;;;;;;;21.94;96.62;99585.16;128029;1284;99380;-77
2023/08/26 05:00:45;;;;;;;8.50;6.40;;;;;;;22.03;96.52;99590.27;128151;1283;100547;-77
2023/08/26 05:03:50;;;;;;;8.20;6.30;;;;;;;22.09;96.44;99594.64;128296;1285;99479;-76
2023/08/26 05:06:56;;;;;;;7.80;6.30;;;;;;;22.17;96.56;99593.40;128648;1282;99880;-77
2023/08/26 05:10:03;;;;;;;8.30;6.20;;;;;;;22.33;96.42;99587.54;128342;1283;99791;-78
2023/08/26 05:13:09;;;;;;;8.20;6.20;;;;;;;22.48;96.52;99593.48;128142;1285;100546;-79
2023/08/26 05:16:14;;;;;;;9.00;6.10;;;;;;;22.64;96.21;99597.75;128016;1283;99397;-76
2023/08/26 05:19:20;;;;;;;5.60;5.10;;;;;;;22.75;95.85;99598.95;128296;1279;99373;-77
2023/08/26 05:22:26;;;;;;;10.60;6.30;;;;;;;22.87;95.90;99605.48;128119;1283;100547;-76
2023/08/26 05:25:32;;;;;;;8.30;6.30;;;;;;;22.99;95.76;99606.27;128204;1280;99392;-76
2023/08/26 05:28:38;;;;;;;9.60;6.30;;;;;;;23.06;95.61;99601.39;127926;1287;99336;-76
2023/08/26 05:31:45;;;;;;;6.30;5.50;;;;;;;23.08;95.33;99610.65;128174;1285;99438;-77
2023/08/26 05:34:52;;;;;;;6.60;5.20;;;;;;;23.10;95.26;99610.08;128168;1285;99537;-76
2023/08/26 05:37:59;;;;;;;7.00;6.30;;;;;;;23.16;95.03;99603.90;128143;1284;100543;-76
2023/08/26 05:41:07;;;;;;;7.50;6.00;;;;;;;23.22;95.09;99606.69;128190;1284;100438;-76
2023/08/26 05:44:12;;;;;;;8.10;5.80;;;;;;;23.26;95.00;99611.49;128090;1297;99409;-77
2023/08/26 05:47:18;;;;;;;7.30;5.50;;;;;;;23.29;94.95;99614.48;128137;1284;99348;-76
2023/08/26 05:50:23;;;;;;;7.10;5.60;;;;;;;23.33;94.86;99613.59;127965;1284;99471;-76
2023/08/26 05:53:30;;;;;;;6.90;5.90;;;;;;;23.37;94.82;99615.50;128162;1285;99483;-76
2023/08/26 05:56:36;;;;;;;6.20;5.60;;;;;;;23.43;94.64;99621.73;128184;1282;99843;-76
2023/08/26 05:59:42;;;;;;;8.30;6.10;;;;;;;23.47;94.48;99627.01;128367;1284;100546;-75
2023/08/26 06:02:49;;;;;;;6.60;5.70;;;;;;;23.50;94.47;99630.36;128269;1283;100502;-76
2023/08/26 06:05:55;;;;;;;8.40;5.70;;;;;;;23.50;94.49;99634.45;128202;1284;100584;-75
2023/08/26 06:09:02;;;;;;;6.30;5.30;;;;;;;23.51;94.13;99644.48;128000;1284;99422;-75
2023/08/26 06:12:10;;;;;;;6.10;5.50;;;;;;;23.55;94.03;99641.95;128460;1282;100451;-75
2023/08/26 06:15:16;;;;;;;6.30;5.70;;;;;;;23.58;94.14;99639.43;128059;1281;99378;-75
2023/08/26 06:18:22;;;;;;;6.20;5.50;;;;;;;23.61;94.05;99634.67;129190;1281;99437;-76
2023/08/26 06:21:28;;;;;;;6.40;5.20;;;;;;;23.61;93.87;99628.20;128277;1284;100525;-75
2023/08/26 06:24:34;;;;;;;11.50;5.60;;;;;;;23.65;93.88;99630.05;128186;1284;99375;-76
2023/08/26 06:27:40;;;;;;;5.40;4.90;;;;;;;23.70;93.75;99626.52;128223;1282;99455;-75
2023/08/26 06:30:46;;;;;;;6.10;5.40;;;;;;;23.75;93.54;99622.21;128318;1278;99423;-75
2023/08/26 06:33:52;;;;;;;6.40;5.30;;;;;;;23.82;93.71;99622.16;128185;1281;99663;-75
2023/08/26 06:36:58;;;;;;;5.30;4.80;;;;;;;23.88;93.49;99619.98;128093;1285;99429;-74
2023/08/26 06:40:05;;;;;;;6.20;5.20;;;;;;;23.91;93.27;99623.72;127944;1282;99502;-75
2023/08/26 06:43:11;;;;;;;5.40;4.90;;;;;;;23.97;93.21;99629.98;128275;1281;99381;-76
2023/08/26 06:46:16;;;;;;;6.10;5.20;;;;;;;24.02;92.64;99632.61;128505;1283;99432;-77
2023/08/26 06:49:22;;;;;;;6.20;5.40;;;;;;;24.10;93.09;99637.58;129890;1282;100473;-77
2023/08/26 06:52:30;;;;;;;7.60;5.00;;;;;;;24.15;92.81;99635.95;128811;1282;99411;-76
2023/08/26 06:55:36;;;;;;;5.40;4.60;;;;;;;24.20;92.48;99633.98;128219;1281;99451;-76
2023/08/26 06:58:41;;;;;;;6.00;4.70;;;;;;;24.23;91.90;99633.45;128138;1284;100643;-76
2023/08/26 07:01:47;;;;;;;6.10;4.70;;;;;;;24.30;92.37;99639.95;128197;1284;99780;-75
2023/08/26 07:04:52;;;;;;;5.10;4.60;;;;;;;24.37;92.10;99642.09;128041;1282;100578;-75
2023/08/26 07:07:58;;;;;;;5.80;4.60;;;;;;;24.41;91.23;99641.53;128267;1284;99361;-76
2023/08/26 07:11:03;;;;;;;5.30;4.50;;;;;;;24.47;91.70;99648.06;128167;1284;102740;-76
2023/08/26 07:14:09;;;;;;;7.80;4.70;;;;;;;24.54;91.54;99648.81;128220;1284;99806;-76
2023/08/26 07:17:15;;;;;;;5.10;4.50;;;;;;;24.64;91.50;99655.98;128306;1283;99752;-76
2023/08/26 07:20:21;;;;;;;6.10;4.70;;;;;;;24.70;91.05;99658.66;128318;1285;99484;-75
2023/08/26 07:23:27;;;;;;;5.60;3.90;;;;;;;24.76;90.60;99657.05;128212;1284;99467;-76
2023/08/26 07:26:32;;;;;;;7.40;3.80;;;;;;;24.81;90.36;99648.73;128328;1282;99390;-76
2023/08/26 07:29:40;;;;;;;5.40;4.00;;;;;;;24.87;90.02;99648.68;128368;1279;100559;-76
2023/08/26 07:32:45;;;;;;;4.80;3.70;;;;;;;24.94;89.73;99650.08;128348;1283;100563;-76
2023/08/26 07:35:51;;;;;;;4.50;4.10;;;;;;;25.04;89.89;99646.98;128574;1279;100541;-76
2023/08/26 07:38:57;;;;;;;4.80;4.20;;;;;;;25.13;89.52;99651.63;128315;1283;100543;-76
2023/08/26 07:42:03;;;;;;;4.90;3.70;;;;;;;25.21;89.48;99656.96;128280;1284;100454;-74
2023/08/26 07:45:10;;;;;;;4.20;3.80;;;;;;;25.27;89.08;99654.13;128750;1279;100917;-73
2023/08/26 07:48:16;;;;;;;5.10;3.90;;;;;;;25.33;88.17;99657.77;128355;1282;99359;-74
2023/08/26 07:51:21;;;;;;;4.80;4.20;;;;;;;25.39;88.11;99661.84;128451;1279;99399;-74
2023/08/26 07:54:27;;;;;;;4.90;3.80;;;;;;;25.48;88.15;99668.82;128581;1278;99484;-74
2023/08/26 07:57:32;;;;;;;4.10;3.70;;;;;;;25.57;88.00;99674.02;128755;1279;99358;-74
2023/08/26 08:00:39;;;;;;;4.10;3.70;;;;;;;25.63;87.53;99682.87;128716;1278;99474;-76
2023/08/26 08:03:44;;;;;;;3.70;3.40;;;;;;;25.68;86.71;99682.08;128297;1283;99474;-74
2023/08/26 08:06:50;;;;;;;4.30;3.90;;;;;;;25.73;86.87;99681.39;128320;1285;99392;-75
2023/08/26 08:09:56;;;;;;;6.20;4.30;;;;;;;25.82;87.09;99689.14;128342;1279;99471;-74
2023/08/26 08:13:01;;;;;;;4.80;4.30;;;;;;;25.89;87.05;99688.39;128306;1279;100649;-74
2023/08/26 08:16:08;;;;;;;4.20;3.80;;;;;;;25.96;87.04;99689.59;128313;1283;100425;-74
2023/08/26 08:19:14;;;;;;;4.20;3.30;;;;;;;25.99;86.13;99686.42;128283;1285;100511;-74
2023/08/26 08:22:34;;;;;;;4.20;3.50;;;;;;;26.05;86.05;99685.61;128349;1279;99474;-75
2023/08/26 08:25:40;;;;;;;5.80;3.80;;;;;;;26.14;85.54;99677.98;128340;1284;100643;-74
2023/08/26 08:28:46;;;;;;;5.30;3.70;;;;;;;26.16;85.00;99678.98;128320;1279;100591;-74
2023/08/26 08:31:51;;;;;;;4.00;3.50;;;;;;;26.11;84.61;99678.19;128289;1284;100524;-74
2023/08/26 08:34:57;;;;;;;4.00;3.60;;;;;;;26.07;84.70;99687.65;128430;1282;100447;-75
2023/08/26 08:38:02;;;;;;;3.70;3.40;;;;;;;26.09;84.71;99693.13;128194;1278;99465;-75
2023/08/26 08:41:08;;;;;;;5.40;3.80;;;;;;;26.17;84.28;99686.95;128256;1281;100430;-74
2023/08/26 08:44:16;;;;;;;4.30;3.10;;;;;;;26.31;83.70;99698.36;128393;1282;99397;-75
2023/08/26 08:47:22;;;;;;;4.70;3.20;;;;;;;26.47;83.28;99698.81;128407;1283;99350;-75
2023/08/26 08:50:27;;;;;;;3.50;3.00;;;;;;;26.63;82.53;99697.05;128396;1281;99372;-75
2023/08/26 08:53:34;;;;;;;4.00;3.40;;;;;;;26.72;82.09;99699.40;128365;1283;99362;-74
2023/08/26 08:56:40;;;;;;;4.20;3.30;;;;;;;26.81;81.98;99708.39;128364;1283;100562;-74
2023/08/26 08:59:46;;;;;;;3.50;3.20;;;;;;;26.96;81.43;99708.05;128292;1279;100492;-75
2023/08/26 09:02:55;;;;;;;5.10;3.30;;;;;;;27.06;81.51;99709.30;128257;1282;99889;-74
2023/08/26 09:06:00;;;;;;;3.40;3.10;;;;;;;27.12;81.04;99707.81;128320;1279;100559;-75
2023/08/26 09:09:10;;;;;;;3.50;2.90;;;;;;;27.20;80.75;99704.67;128329;1284;99446;-78
2023/08/26 09:12:16;;;;;;;4.70;2.80;;;;;;;27.30;79.94;99703.91;128723;1279;99632;-75
2023/08/26 09:15:22;;;;;;;2.70;2.40;;;;;;;27.38;79.59;99699.62;128333;1279;99948;-76
2023/08/26 09:18:30;;;;;;;2.70;2.50;;;;;;;27.46;79.38;99699.16;128423;1284;99464;-76
2023/08/26 09:21:40;;;;;;;4.10;2.70;;;;;;;27.56;78.57;99697.59;128181;1284;99547;-76
2023/08/26 09:24:45;;;;;;;3.00;2.70;;;;;;;27.65;78.73;99695.52;128510;1284;99683;-76
2023/08/26 09:27:51;;;;;;;4.20;2.40;;;;;;;27.75;77.69;99696.36;128389;1282;100591;-76
2023/08/26 09:31:07;;;;;;;3.30;2.20;;;;;;;27.92;77.82;99700.25;128431;1279;99458;-76
2023/08/26 09:34:13;;;;;;;4.00;2.60;;;;;;;28.16;77.10;99697.89;128382;1279;100476;-78
2023/08/26 09:37:18;;;;;;;3.30;2.60;;;;;;;28.19;76.80;99708.63;128460;1285;99446;-76
2023/08/26 09:40:25;;;;;;;4.20;2.40;;;;;;;28.16;76.63;99712.36;128460;1279;99331;-76
2023/08/26 09:43:32;;;;;;;3.20;2.40;;;;;;;28.11;76.09;99710.37;128322;1285;99480;-75
2023/08/26 09:46:39;;;;;;;3.80;2.50;;;;;;;28.08;75.91;99710.98;128238;1284;99798;-76
2023/08/26 09:49:49;;;;;;;4.50;2.40;;;;;;;28.05;75.74;99707.60;128344;1284;100553;-75
2023/08/26 09:52:54;;;;;;;3.00;2.60;;;;;;;27.99;75.65;99709.78;128389;1279;100496;-76
2023/08/26 09:56:02;;;;;;;2.80;2.10;;;;;;;27.88;75.04;99716.02;128713;1281;99464;-76
2023/08/26 09:59:08;;;;;;;3.30;2.40;;;;;;;27.71;74.52;99705.93;128834;1279;100435;-76
2023/08/26 10:02:44;;;;;;;2.10;1.90;;;;;;;27.55;74.54;99704.61;130311;1279;99908;-77
2023/08/26 10:05:55;;;;;;;2.50;2.10;;;;;;;27.38;74.65;99698.02;129203;1278;100552;-78
2023/08/26 10:09:07;;;;;;;2.40;2.00;;;;;;;27.29;74.43;99697.55;128490;1282;100591;-78
2023/08/26 10:12:18;;;;;;;2.10;1.70;;;;;;;27.20;74.47;99701.83;128634;1283;99384;-78
2023/08/26 10:15:27;;;;;;;2.80;2.10;;;;;;;27.17;74.63;99697.23;128456;1278;99884;-78
2023/08/26 10:18:40;;;;;;;2.20;2.00;;;;;;;27.20;74.80;99696.30;128412;1284;99493;-78
2023/08/26 10:21:47;;;;;;;2.50;2.20;;;;;;;27.36;74.71;99692.51;128446;1285;99458;-78
2023/08/26 10:24:56;;;;;;;3.30;2.50;;;;;;;27.55;73.51;99685.92;128407;1284;99350;-77
2023/08/26 10:28:04;;;;;;;3.50;2.40;;;;;;;27.59;73.31;99683.77;128547;1284;100599;-79
2023/08/26 10:31:10;;;;;;;2.20;2.00;;;;;;;27.59;72.81;99687.39;128628;1284;100557;-80
2023/08/26 10:34:17;;;;;;;2.00;1.80;;;;;;;27.53;72.24;99682.37;128355;1282;100454;-80
2023/08/26 10:37:26;;;;;;;2.40;2.20;;;;;;;27.50;71.86;99686.37;128164;1285;100420;-79
2023/08/26 10:40:34;;;;;;;3.00;2.50;;;;;;;27.46;71.41;99687.45;128590;1278;99362;-76
2023/08/26 10:43:53;;;;;;;2.20;2.00;;;;;;;27.47;71.43;99690.17;128429;1284;99382;-77
2023/08/26 10:47:04;;;;;;;2.80;2.20;;;;;;;27.54;71.12;99686.80;128459;1282;99471;-79
2023/08/26 10:50:27;;;;;;;2.50;2.30;;;;;;;27.56;70.42;99689.42;128727;1284;99443;-78
2023/08/26 10:53:45;;;;;;;2.50;2.10;;;;;;;27.51;70.38;99688.62;128474;1284;100549;-78
2023/08/26 10:57:03;;;;;;;3.10;2.10;;;;;;;27.44;70.57;99689.85;128528;1282;100843;-78
2023/08/26 11:00:13;;;;;;;2.70;2.10;;;;;;;27.45;70.43;99681.89;128553;1282;100454;-79
2023/08/26 11:03:20;;;;;;;2.60;2.00;;;;;;;27.45;70.28;99682.08;128700;1284;99346;-79
2023/08/26 11:06:28;;;;;;;3.90;2.10;;;;;;;27.49;69.91;99681.73;128423;1283;99969;-78
2023/08/26 11:09:37;;;;;;;3.50;2.40;;;;;;;27.61;69.84;99676.26;128505;1279;99385;-78
2023/08/26 11:12:47;;;;;;;2.70;2.00;;;;;;;27.83;69.90;99672.21;128501;1281;100569;-78
2023/08/26 11:15:54;;;;;;;2.40;1.80;;;;;;;28.08;69.26;99674.17;128772;1284;100546;-78
2023/08/26 11:19:00;;;;;;;2.10;1.70;;;;;;;28.22;67.89;99671.46;128636;1283;99344;-76
2023/08/26 11:22:07;;;;;;;3.40;1.80;;;;;;;28.20;66.18;99665.92;128632;1281;99363;-78
2023/08/26 11:25:16;;;;;;;2.10;1.70;;;;;;;28.15;66.53;99661.08;128701;1282;99484;-76
2023/08/26 11:28:21;;;;;;;2.90;1.80;;;;;;;28.13;65.34;99659.94;129230;1280;99388;-76
2023/08/26 11:31:27;;;;;;;3.10;1.70;;;;;;;28.03;65.06;99660.88;128397;1283;99486;-76
2023/08/26 11:34:34;;;;;;;2.20;1.80;;;;;;;28.00;65.50;99663.42;128722;1284;99364;-76
2023/08/26 11:37:43;;;;;;;2.10;1.90;;;;;;;28.02;64.49;99665.48;128948;1279;99394;-77
2023/08/26 11:40:49;;;;;;;1.80;1.60;;;;;;;28.08;65.34;99667.05;128940;1281;100546;-75
2023/08/26 11:43:55;;;;;;;2.20;2.00;;;;;;;28.00;64.30;99669.67;128446;1284;99333;-76
2023/08/26 11:47:01;;;;;;;4.30;2.10;;;;;;;28.02;64.10;99670.59;128587;1283;100445;-76
2023/08/26 11:50:09;;;;;;;2.70;2.00;;;;;;;28.17;64.01;99674.56;128689;1283;99334;-76
2023/08/26 11:53:14;;;;;;;4.90;2.40;;;;;;;28.17;63.92;99683.52;128526;1282;99419;-75
2023/08/26 11:56:21;;;;;;;2.50;2.30;;;;;;;28.04;64.12;99694.63;128467;1284;100662;-76
2023/08/26 11:59:26;;;;;;;3.50;2.10;;;;;;;27.91;63.88;99705.81;128560;1281;99355;-76
2023/08/26 12:02:32;;;;;;;3.50;2.50;;;;;;;27.95;64.26;99705.59;128707;1282;100442;-76
2023/08/26 12:05:49;;;;;;;2.50;2.30;;;;;;;28.15;63.89;99684.23;128483;1284;99949;-75
2023/08/26 12:08:56;;;;;;;2.50;2.30;;;;;;;28.44;63.94;99672.80;128886;1283;100527;-76
2023/08/26 12:12:07;;;;;;;2.60;2.40;;;;;;;28.76;63.32;99673.10;128777;1283;100548;-76
2023/08/26 12:15:16;;;;;;;3.40;2.60;;;;;;;29.02;63.36;99671.98;128565;1282;99656;-76
2023/08/26 12:18:23;;;;;;;3.20;2.50;;;;;;;29.12;62.43;99669.48;128459;1282;99492;-76
2023/08/26 12:21:31;;;;;;;2.80;2.30;;;;;;;29.09;62.66;99673.33;129041;1284;100549;-79
2023/08/26 12:24:39;;;;;;;3.60;2.50;;;;;;;29.02;62.14;99669.91;129133;1282;100151;-76
2023/08/26 12:27:45;;;;;;;2.70;2.40;;;;;;;28.93;61.67;99665.59;129264;1282;99343;-76
2023/08/26 12:30:50;;;;;;;3.40;2.70;;;;;;;28.89;61.70;99668.15;128390;1283;99817;-76
2023/08/26 12:33:56;;;;;;;3.30;2.60;;;;;;;29.00;61.54;99669.63;128768;1282;99455;-76
2023/08/26 12:37:01;;;;;;;2.90;2.60;;;;;;;29.16;61.28;99672.69;128686;1293;99382;-75
2023/08/26 12:40:10;;;;;;;3.40;3.00;;;;;;;29.27;60.87;99667.63;128814;1284;102859;-76
2023/08/26 12:43:18;;;;;;;4.50;2.70;;;;;;;29.37;61.04;99670.20;128408;1284;100569;-76
2023/08/26 12:46:24;;;;;;;3.60;2.70;;;;;;;29.44;61.24;99672.11;128323;1284;100564;-75
2023/08/26 12:49:30;;;;;;;3.50;2.60;;;;;;;29.47;60.88;99661.30;128259;1285;99501;-75
2023/08/26 12:52:35;;;;;;;3.20;2.50;;;;;;;29.43;60.71;99652.48;128255;1282;241180;-77
2023/08/26 12:55:41;;;;;;;4.60;2.70;;;;;;;29.41;60.69;99655.70;129643;1279;99271;-78
2023/08/26 12:58:48;;;;;;;2.90;2.60;;;;;;;29.39;60.65;99668.75;129090;1282;100530;-77
2023/08/26 13:01:53;;;;;;;4.80;3.80;;;;;;;29.35;60.80;99673.74;128808;1283;99391;-75
2023/08/26 13:04:59;;;;;;;4.80;3.70;;;;;;;29.28;61.30;99683.71;128397;1282;100055;-76
2023/08/26 13:08:06;;;;;;;2.80;2.50;;;;;;;29.15;61.13;99683.58;128355;1293;100478;-76
2023/08/26 13:11:11;;;;;;;3.30;2.70;;;;;;;29.03;60.89;99680.71;128300;1284;100588;-76
2023/08/26 13:14:17;;;;;;;4.30;2.90;;;;;;;28.92;61.13;99682.84;128224;1284;99454;-75
2023/08/26 13:17:22;;;;;;;6.20;5.50;;;;;;;28.85;61.36;99680.48;128428;1284;99342;-76
2023/08/26 13:20:28;;;;;;;5.40;4.60;;;;;;;28.83;61.92;99681.28;128460;1285;99443;-75
2023/08/26 13:23:34;;;;;;;4.90;3.90;;;;;;;28.83;61.98;99679.24;128420;1283;99745;-75
2023/08/26 13:26:39;;;;;;;4.20;3.20;;;;;;;28.82;61.66;99674.75;128459;1282;99577;-75
2023/08/26 13:29:45;;;;;;;3.60;3.30;;;;;;;28.82;61.49;99671.56;128557;1285;100563;-75
2023/08/26 13:32:50;;;;;;;3.90;3.00;;;;;;;28.77;61.40;99676.33;128443;1286;99483;-76
2023/08/26 13:35:56;;;;;;;3.70;3.40;;;;;;;28.68;61.42;99669.99;128294;1291;100449;-76
2023/08/26 13:39:02;;;;;;;3.40;3.10;;;;;;;28.56;61.30;99665.31;128691;1291;99361;-76
2023/08/26 13:42:09;;;;;;;3.20;3.00;;;;;;;28.53;61.59;99664.52;128382;1282;99378;-75
2023/08/26 13:45:14;;;;;;;5.30;3.60;;;;;;;28.56;61.95;99662.13;128443;1282;100549;-75
2023/08/26 13:48:20;;;;;;;4.00;3.30;;;;;;;28.62;61.97;99658.52;128314;1285;99371;-75
2023/08/26 13:51:26;;;;;;;5.50;4.00;;;;;;;28.67;61.78;99655.66;128263;1283;99381;-75
2023/08/26 13:54:31;;;;;;;6.30;4.30;;;;;;;28.71;62.11;99654.33;128294;1285;100598;-78
2023/08/26 13:57:37;;;;;;;5.50;3.80;;;;;;;28.72;62.19;99654.27;128645;1283;100543;-78
2023/08/26 14:00:42;;;;;;;3.80;3.20;;;;;;;28.68;62.26;99649.95;128396;1284;100560;-77
2023/08/26 14:03:48;;;;;;;4.30;3.70;;;;;;;28.64;62.16;99651.23;128209;1285;100486;-77
2023/08/26 14:06:53;;;;;;;4.50;3.70;;;;;;;28.56;62.02;99647.10;128548;1282;100492;-74
2023/08/26 14:10:00;;;;;;;4.10;3.70;;;;;;;28.46;62.41;99641.98;128412;1284;100524;-76
2023/08/26 14:13:06;;;;;;;4.10;3.40;;;;;;;28.35;62.87;99640.36;128383;1279;100445;-76
2023/08/26 14:16:11;;;;;;;3.50;3.20;;;;;;;28.24;63.11;99641.98;128318;1292;99380;-77
2023/08/26 14:19:17;;;;;;;4.10;3.70;;;;;;;28.11;63.55;99643.94;128462;1282;99480;-78
2023/08/26 14:22:23;;;;;;;4.00;3.50;;;;;;;27.96;63.62;99648.20;128606;1282;99359;-76
2023/08/26 14:25:31;;;;;;;5.10;4.10;;;;;;;27.82;63.98;99649.58;128455;1282;99365;-77